Time;durP1;ratioP1;P1;durP2;ratioP2;P2;SDS_P1;SDS_P2;PMS_P1;PMS_P2;Temp;Humidity;BMP_temperature;BMP_pressure;BME280_temperature;BME280_humidity;BME280_pressure;Samples;Min_cycle;Max_cycle;Signal;HPM_P1;HPM_P2
2022/01/11 00:00:45;;;;;;;17.20;10.20;;;;;;;;;;5012386;28;20437;-90
2022/01/11 00:03:13;;;;;;;22.37;12.50;;;1.50;99.90;;;;;;5015648;28;20454;-91
2022/01/11 00:05:46;;;;;;;26.93;12.10;;;;;;;;;;5002167;28;20482;-90
2022/01/11 00:08:17;;;;;;;24.77;12.77;;;;;;;;;;4994200;28;20993;-90
2022/01/11 00:10:49;;;;;;;25.17;13.07;;;;;;;;;;4993355;28;20486;-91
2022/01/11 00:13:18;;;;;;;26.50;12.17;;;1.50;99.90;;;;;;4995348;28;20964;-90
2022/01/11 00:15:45;;;;;;;30.93;12.20;;;;;;;;;;4996143;28;20500;-89
2022/01/11 00:18:12;;;;;;;24.23;12.63;;;;;;;;;;4996572;28;20457;-89
2022/01/11 00:20:39;;;;;;;27.40;14.53;;;;;;;;;;4996192;28;20454;-90
2022/01/11 00:25:57;;;;;;;27.93;12.77;;;1.40;99.90;;;;;;4996518;28;20821;-91
2022/01/11 00:28:27;;;;;;;26.40;13.20;;;1.50;99.90;;;;;;4991233;28;20445;-92
2022/01/11 00:30:54;;;;;;;22.30;13.00;;;;;;;;;;4993077;28;20439;-91
2022/01/11 00:33:26;;;;;;;24.93;13.90;;;1.50;99.90;;;;;;4991270;28;20453;-89
2022/01/11 00:36:00;;;;;;;25.97;13.47;;;;;;;;;;4996148;28;20543;-89
2022/01/11 00:38:29;;;;;;;23.00;12.10;;;1.50;99.90;;;;;;4991094;28;20496;-91
2022/01/11 00:41:01;;;;;;;27.10;12.80;;;1.50;99.90;;;;;;4996526;28;20453;-90
2022/01/11 00:43:29;;;;;;;29.30;12.37;;;;;;;;;;4995207;28;20446;-90
2022/01/11 00:45:56;;;;;;;20.77;12.00;;;;;;;;;;4995948;28;20438;-89
2022/01/11 00:48:24;;;;;;;26.00;12.93;;;;;;;;;;4989084;28;20477;-90
2022/01/11 00:50:52;;;;;;;29.80;14.13;;;1.60;99.90;;;;;;4995804;28;20445;-91
2022/01/11 00:53:19;;;;;;;25.60;13.90;;;;;;;;;;4992784;28;20441;-91
2022/01/11 00:55:47;;;;;;;29.83;14.53;;;;;;;;;;4995552;28;20504;-90
2022/01/11 00:58:16;;;;;;;30.27;14.37;;;;;;;;;;4992234;28;20450;-90
2022/01/11 01:00:44;;;;;;;20.63;12.57;;;1.50;99.90;;;;;;4996463;28;20438;-89
2022/01/11 01:03:11;;;;;;;29.40;13.00;;;;;;;;;;4996256;28;20996;-88
2022/01/11 01:05:39;;;;;;;21.67;13.40;;;;;;;;;;4997549;28;20548;-90
2022/01/11 01:08:06;;;;;;;21.47;11.83;;;;;;;;;;4995677;28;20989;-91
2022/01/11 01:10:38;;;;;;;31.93;13.70;;;;;;;;;;4995131;28;20449;-92
2022/01/11 01:13:08;;;;;;;27.87;13.40;;;1.50;99.90;;;;;;4995443;28;20549;-89
2022/01/11 01:15:37;;;;;;;26.90;12.23;;;;;;;;;;4995977;28;20496;-90
2022/01/11 01:18:05;;;;;;;27.80;11.97;;;1.50;99.90;;;;;;4996895;28;20454;-91
2022/01/11 01:20:32;;;;;;;29.00;13.63;;;;;;;;;;4996860;28;20457;-91
2022/01/11 01:22:59;;;;;;;22.23;12.17;;;;;;;;;;4997274;28;20446;-91
2022/01/11 01:25:27;;;;;;;19.80;11.23;;;;;;;;;;4996790;28;20426;-91
2022/01/11 01:27:54;;;;;;;25.93;13.00;;;;;;;;;;4996509;28;20800;-89
2022/01/11 01:30:22;;;;;;;21.83;12.20;;;;;;;;;;4996917;28;20465;-89
2022/01/11 01:32:51;;;;;;;33.10;12.80;;;1.50;99.90;;;;;;4995618;28;20461;-90
2022/01/11 01:35:19;;;;;;;32.83;12.77;;;1.50;99.90;;;;;;4995481;28;20500;-90
2022/01/11 01:37:47;;;;;;;27.07;12.10;;;;;;;;;;4990634;28;20457;-90
2022/01/11 01:40:17;;;;;;;27.77;14.47;;;1.40;99.90;;;;;;4995177;28;20446;-90
2022/01/11 01:42:44;;;;;;;26.80;12.60;;;;;;;;;;4994256;28;20446;-90
2022/01/11 01:45:12;;;;;;;25.90;12.97;;;;;;;;;;4990749;28;20454;-90
2022/01/11 01:47:39;;;;;;;23.93;11.77;;;;;;;;;;4994370;28;20468;-90
2022/01/11 01:50:09;;;;;;;22.60;11.10;;;;;;;;;;4994548;28;20450;-90
2022/01/11 01:52:36;;;;;;;19.60;12.57;;;;;;;;;;4995370;28;20799;-91
2022/01/11 01:55:05;;;;;;;21.10;12.40;;;1.50;99.90;;;;;;4995005;28;20500;-92
2022/01/11 01:57:32;;;;;;;28.37;13.10;;;;;;;;;;4993858;28;20941;-91
2022/01/11 02:00:03;;;;;;;23.40;12.80;;;;;;;;;;4995157;28;20903;-90
2022/01/11 02:02:30;;;;;;;24.13;11.70;;;;;;;;;;4994506;28;20430;-90
2022/01/11 02:04:58;;;;;;;28.77;12.30;;;;;;;;;;4990525;28;20523;-89
2022/01/11 02:07:26;;;;;;;26.97;13.60;;;;;;;;;;4994588;28;21008;-89
2022/01/11 02:09:54;;;;;;;24.07;12.50;;;;;;;;;;4994401;28;20450;-91
2022/01/11 02:12:21;;;;;;;24.10;13.17;;;;;;;;;;4994226;28;20442;-88
2022/01/11 02:14:48;;;;;;;23.93;12.73;;;;;;;;;;4991116;28;20493;-89
2022/01/11 02:17:15;;;;;;;23.27;13.73;;;;;;;;;;4994544;28;20449;-89
2022/01/11 02:19:43;;;;;;;23.27;13.40;;;;;;;;;;4994752;28;20438;-89
2022/01/11 02:22:11;;;;;;;26.07;13.73;;;;;;;;;;4994615;28;20840;-90
2022/01/11 02:24:38;;;;;;;25.70;14.37;;;;;;;;;;4990540;28;20458;-90
2022/01/11 02:27:06;;;;;;;24.27;14.70;;;;;;;;;;4994311;28;20449;-89
2022/01/11 02:29:33;;;;;;;22.33;13.60;;;;;;;;;;4990670;28;20953;-91
2022/01/11 02:32:00;;;;;;;24.27;14.97;;;;;;;;;;4991375;28;20461;-90
2022/01/11 02:34:28;;;;;;;25.83;13.97;;;;;;;;;;4993755;28;20976;-89
2022/01/11 02:36:55;;;;;;;28.60;14.47;;;;;;;;;;4991206;28;20942;-89
2022/01/11 02:39:24;;;;;;;31.60;16.57;;;;;;;;;;4994035;28;20445;-89
2022/01/11 02:41:53;;;;;;;25.90;15.90;;;1.70;99.90;;;;;;4994232;28;20457;-91
2022/01/11 02:44:20;;;;;;;34.10;14.60;;;;;;;;;;4993121;28;20441;-89
2022/01/11 02:46:47;;;;;;;27.63;15.67;;;;;;;;;;4995127;28;20957;-90
2022/01/11 02:49:14;;;;;;;28.40;15.30;;;;;;;;;;4993936;28;20824;-90
2022/01/11 02:51:41;;;;;;;28.50;15.90;;;;;;;;;;4991176;28;20441;-89
2022/01/11 02:54:09;;;;;;;33.80;14.93;;;;;;;;;;4993906;28;20448;-90
2022/01/11 02:56:37;;;;;;;28.50;14.93;;;1.60;99.90;;;;;;4996431;28;20486;-90
2022/01/11 02:59:05;;;;;;;22.27;13.70;;;;;;;;;;4996405;28;20457;-89
2022/01/11 03:01:32;;;;;;;30.60;14.67;;;;;;;;;;4994595;28;20457;-90
2022/01/11 03:03:59;;;;;;;28.47;15.03;;;;;;;;;;4997979;28;20458;-89
2022/01/11 03:06:26;;;;;;;25.37;15.50;;;;;;;;;;4998009;28;20461;-91
2022/01/11 03:08:53;;;;;;;22.67;13.53;;;;;;;;;;4997455;28;20442;-89
2022/01/11 03:11:21;;;;;;;22.90;14.87;;;1.50;99.90;;;;;;4996970;28;20461;-89
2022/01/11 03:13:50;;;;;;;35.23;15.70;;;1.40;99.90;;;;;;4955470;29;20448;-91
2022/01/11 03:16:18;;;;;;;28.90;15.20;;;;;;;;;;4953560;29;20506;-89
2022/01/11 03:18:45;;;;;;;27.70;15.20;;;;;;;;;;4956361;28;20452;-88
2022/01/11 03:21:12;;;;;;;28.90;16.30;;;;;;;;;;4953777;29;20470;-89
2022/01/11 03:23:39;;;;;;;32.93;14.27;;;0.40;99.90;;;;;;4956608;29;20777;-90
2022/01/11 03:26:06;;;;;;;33.30;16.00;;;;;;;;;;4952837;29;20468;-89
2022/01/11 03:28:34;;;;;;;26.43;14.23;;;;;;;;;;4955173;29;20448;-91
2022/01/11 03:31:03;;;;;;;33.73;15.40;;;1.40;99.90;;;;;;4960534;28;20444;-89
2022/01/11 03:33:30;;;;;;;32.27;14.57;;;;;;;;;;4993848;28;20450;-90
2022/01/11 03:35:57;;;;;;;21.97;13.63;;;;;;;;;;4996792;28;20500;-89
2022/01/11 03:38:24;;;;;;;22.77;13.53;;;;;;;;;;4996761;28;20453;-90
2022/01/11 03:40:52;;;;;;;24.83;14.47;;;1.50;99.90;;;;;;4994245;28;20469;-90
2022/01/11 03:43:22;;;;;;;21.40;14.10;;;;;;;;;;4995803;28;20461;-89
2022/01/11 03:45:50;;;;;;;23.53;14.53;;;1.50;99.90;;;;;;4993462;28;20469;-91
2022/01/11 03:48:19;;;;;;;25.50;13.43;;;1.50;99.90;;;;;;4996546;28;20470;-91
2022/01/11 03:50:51;;;;;;;21.97;13.43;;;;;;;;;;4996358;28;20442;-90
2022/01/11 03:53:19;;;;;;;24.17;15.70;;;;;;;;;;4996403;28;20458;-89
2022/01/11 03:55:59;;;;;;;27.97;15.10;;;1.50;99.90;;;;;;4989713;28;20544;-91
2022/01/11 03:58:29;;;;;;;32.27;15.80;;;;;;;;;;4996118;28;20462;-91
2022/01/11 04:00:56;;;;;;;31.90;15.10;;;;;;;;;;4996286;28;20821;-90
2022/01/11 04:03:26;;;;;;;34.33;16.60;;;1.50;99.90;;;;;;4993408;28;20450;-90
2022/01/11 04:05:54;;;;;;;38.03;16.03;;;;;;;;;;4988939;28;20456;-90
2022/01/11 04:08:22;;;;;;;31.63;15.93;;;;;;;;;;4992970;28;20493;-89
2022/01/11 04:10:49;;;;;;;37.70;17.13;;;;;;;;;;4996955;28;20942;-88
2022/01/11 04:13:17;;;;;;;32.67;16.10;;;;;;;;;;4995933;28;20457;-90
2022/01/11 04:15:44;;;;;;;32.37;16.80;;;;;;;;;;4996306;28;20489;-90
2022/01/11 04:18:11;;;;;;;36.00;15.63;;;;;;;;;;4995951;28;20461;-90
2022/01/11 04:20:39;;;;;;;29.13;14.93;;;;;;;;;;4996030;28;20430;-90
2022/01/11 04:23:11;;;;;;;38.33;16.87;;;;;;;;;;4996004;28;20453;-90
2022/01/11 04:25:38;;;;;;;26.53;15.33;;;;;;;;;;4995709;28;20540;-89
2022/01/11 04:28:06;;;;;;;31.37;15.60;;;1.50;99.90;;;;;;4992107;28;20449;-89
2022/01/11 04:30:34;;;;;;;39.53;16.90;;;;;;;;;;4996079;28;20481;-90
2022/01/11 04:33:02;;;;;;;36.10;15.73;;;;;;;;;;4992808;28;20527;-91
2022/01/11 04:35:29;;;;;;;44.10;16.23;;;;;;;;;;4996549;28;20474;-89
2022/01/11 04:37:58;;;;;;;25.73;14.43;;;;;;;;;;4995856;28;20971;-89
2022/01/11 04:40:25;;;;;;;26.80;14.70;;;;;;;;;;4995656;28;20489;-92
2022/01/11 04:42:52;;;;;;;27.83;15.30;;;;;;;;;;4991852;28;20450;-89
2022/01/11 04:45:20;;;;;;;31.80;14.60;;;;;;;;;;4992625;28;20453;-90
2022/01/11 04:47:50;;;;;;;31.43;16.50;;;;;;;;;;4995666;28;20473;-89
2022/01/11 04:50:17;;;;;;;29.93;16.60;;;;;;;;;;4992620;28;20855;-90
2022/01/11 04:52:46;;;;;;;35.07;17.70;;;;;;;;;;4991652;28;20445;-89
2022/01/11 04:55:14;;;;;;;31.33;16.60;;;;;;;;;;4992175;28;20465;-90
2022/01/11 04:57:41;;;;;;;35.70;15.90;;;;;;;;;;4994585;28;20453;-90
2022/01/11 05:00:09;;;;;;;34.27;17.00;;;;;;;;;;4992258;28;20945;-89
2022/01/11 05:02:36;;;;;;;31.77;15.97;;;;;;;;;;4994912;28;20958;-90
2022/01/11 05:05:04;;;;;;;28.30;15.90;;;;;;;;;;4990261;28;20450;-90
2022/01/11 05:07:31;;;;;;;28.10;15.93;;;;;;;;;;4994710;28;20473;-91
2022/01/11 05:09:58;;;;;;;33.20;15.90;;;;;;;;;;4995705;28;20433;-89
2022/01/11 05:12:26;;;;;;;32.10;15.00;;;;;;;;;;4993771;28;20500;-90
2022/01/11 05:14:53;;;;;;;31.37;16.83;;;;;;;;;;4992167;28;20454;-89
2022/01/11 05:17:21;;;;;;;32.53;15.63;;;;;;;;;;4991911;28;20497;-89
2022/01/11 05:19:48;;;;;;;31.07;17.07;;;;;;;;;;4994562;28;20445;-89
2022/01/11 05:22:15;;;;;;;28.90;14.93;;;;;;;;;;4990920;28;20446;-90
2022/01/11 05:24:43;;;;;;;28.97;15.70;;;;;;;;;;4994931;28;20465;-89
2022/01/11 05:27:10;;;;;;;34.80;18.50;;;;;;;;;;4991057;28;20925;-89
2022/01/11 05:29:38;;;;;;;35.20;18.00;;;;;;;;;;4987233;28;20484;-89
2022/01/11 05:32:06;;;;;;;29.80;16.20;;;;;;;;;;4995068;28;20450;-90
2022/01/11 05:34:33;;;;;;;33.90;16.00;;;;;;;;;;4994551;28;20477;-87
2022/01/11 05:37:00;;;;;;;26.57;15.03;;;;;;;;;;4994796;28;20489;-89
2022/01/11 05:39:27;;;;;;;36.80;17.47;;;;;;;;;;4994854;28;20446;-92
2022/01/11 05:41:54;;;;;;;28.93;15.77;;;;;;;;;;4994970;28;20442;-89
2022/01/11 05:44:22;;;;;;;31.67;16.33;;;;;;;;;;4993761;28;20454;-89
2022/01/11 05:46:50;;;;;;;32.77;15.93;;;;;;;;;;4992290;28;20548;-89
2022/01/11 05:49:17;;;;;;;29.43;15.77;;;;;;;;;;4994422;28;20457;-89
2022/01/11 05:51:44;;;;;;;40.40;17.63;;;;;;;;;;4994311;28;20441;-90
2022/01/11 05:54:11;;;;;;;28.77;15.60;;;;;;;;;;4994253;28;20449;-89
2022/01/11 05:56:39;;;;;;;33.27;16.27;;;;;;;;;;4991383;28;20485;-89
2022/01/11 05:59:06;;;;;;;32.57;16.70;;;;;;;;;;4993624;28;20969;-89
2022/01/11 06:01:34;;;;;;;38.80;17.87;;;;;;;;;;4994449;28;20442;-90
2022/01/11 06:04:03;;;;;;;41.40;18.03;;;;;;;;;;4995079;28;20464;-91
2022/01/11 06:06:30;;;;;;;34.13;19.10;;;;;;;;;;4994252;28;20477;-90
2022/01/11 06:08:59;;;;;;;45.67;20.53;;;;;;;;;;4990569;28;20429;-90
2022/01/11 06:11:26;;;;;;;34.10;19.67;;;;;;;;;;4991242;28;20972;-90
2022/01/11 06:13:53;;;;;;;34.10;20.53;;;;;;;;;;4991088;28;20422;-90
2022/01/11 06:16:21;;;;;;;39.03;22.57;;;;;;;;;;4990373;28;20684;-92
2022/01/11 06:18:48;;;;;;;44.53;26.90;;;;;;;;;;4995122;28;20441;-91
2022/01/11 06:21:16;;;;;;;40.70;21.23;;;;;;;;;;4995331;28;20457;-89
2022/01/11 06:23:45;;;;;;;38.60;20.17;;;;;;;;;;4995233;28;20454;-93
2022/01/11 06:26:13;;;;;;;35.57;20.90;;;;;;;;;;4994654;28;20446;-92
2022/01/11 06:28:40;;;;;;;38.37;19.17;;;;;;;;;;4990785;28;20461;-92
2022/01/11 06:31:08;;;;;;;39.17;18.03;;;;;;;;;;4993564;28;20442;-92
2022/01/11 06:33:35;;;;;;;34.23;20.30;;;;;;;;;;4998822;28;20453;-91
2022/01/11 06:36:03;;;;;;;34.63;19.93;;;1.80;99.90;;;;;;4998369;28;20493;-90
2022/01/11 06:38:31;;;;;;;29.63;17.70;;;;;;;;;;4998554;28;20449;-91
2022/01/11 06:40:59;;;;;;;36.20;19.20;;;;;;;;;;4998701;28;20815;-90
2022/01/11 06:43:26;;;;;;;37.20;19.77;;;;;;;;;;4993212;28;20461;-90
2022/01/11 06:45:53;;;;;;;39.33;21.23;;;;;;;;;;4998164;28;20441;-90
2022/01/11 06:48:20;;;;;;;27.80;17.93;;;;;;;;;;4998311;28;20461;-90
2022/01/11 06:50:50;;;;;;;33.63;19.47;;;;;;;;;;4998369;28;20441;-91
2022/01/11 06:53:17;;;;;;;39.03;20.47;;;;;;;;;;4997789;28;20434;-93
2022/01/11 06:55:46;;;;;;;33.93;20.20;;;;;;;;;;4998329;28;20434;-89
2022/01/11 06:58:13;;;;;;;36.43;18.57;;;;;;;;;;4993937;28;20530;-90
2022/01/11 07:00:40;;;;;;;37.30;19.10;;;;;;;;;;4994798;28;20469;-90
2022/01/11 07:03:07;;;;;;;32.97;18.97;;;;;;;;;;4998159;28;20469;-91
2022/01/11 07:05:36;;;;;;;37.53;18.40;;;;;;;;;;4996761;28;20438;-90
2022/01/11 07:08:03;;;;;;;31.60;18.40;;;;;;;;;;4996065;28;20547;-91
2022/01/11 07:10:30;;;;;;;30.00;18.53;;;;;;;;;;5000396;28;20438;-91
2022/01/11 07:12:59;;;;;;;31.17;17.60;;;;;;;;;;4996366;28;20438;-90
2022/01/11 07:15:26;;;;;;;34.23;17.63;;;;;;;;;;5003107;28;20465;-91
2022/01/11 07:17:53;;;;;;;30.83;18.53;;;;;;;;;;5003318;28;20492;-93
2022/01/11 07:20:20;;;;;;;30.20;18.77;;;;;;;;;;4997057;28;20465;-92
2022/01/11 07:22:47;;;;;;;32.07;19.27;;;;;;;;;;4994857;28;20541;-93
2022/01/11 07:25:15;;;;;;;33.33;18.03;;;;;;;;;;4997745;28;20450;-92
2022/01/11 07:27:42;;;;;;;36.13;19.00;;;;;;;;;;4994632;28;20829;-91
2022/01/11 07:30:11;;;;;;;37.80;19.10;;;;;;;;;;4998019;28;20480;-92
2022/01/11 07:32:38;;;;;;;36.50;18.17;;;;;;;;;;4998213;28;20449;-94
2022/01/11 07:35:05;;;;;;;34.40;18.30;;;;;;;;;;4994488;28;20445;-92
2022/01/11 07:37:33;;;;;;;37.13;18.87;;;2.10;99.90;;;;;;4994919;28;20482;-92
2022/01/11 07:40:00;;;;;;;37.73;22.63;;;;;;;;;;4993100;28;20454;-91
2022/01/11 07:42:27;;;;;;;36.20;21.07;;;;;;;;;;4993719;28;20458;-92
2022/01/11 07:44:54;;;;;;;34.53;19.60;;;;;;;;;;4997364;28;20801;-93
2022/01/11 07:47:22;;;;;;;32.97;20.70;;;;;;;;;;4997167;28;20477;-91
2022/01/11 07:49:50;;;;;;;33.03;20.10;;;;;;;;;;4997367;28;20456;-92
2022/01/11 07:52:17;;;;;;;34.63;20.33;;;2.00;99.90;;;;;;4998125;28;20464;-93
2022/01/11 07:54:44;;;;;;;37.13;18.50;;;;;;;;;;4993634;28;20469;-90
2022/01/11 07:57:11;;;;;;;30.93;18.57;;;;;;;;;;4997317;28;20481;-88
2022/01/11 07:59:39;;;;;;;28.53;18.80;;;;;;;;;;4996496;28;20461;-90
2022/01/11 08:02:06;;;;;;;28.70;17.13;;;;;;;;;;4994170;28;20453;-90
2022/01/11 08:04:34;;;;;;;33.37;19.00;;;;;;;;;;4992944;28;20440;-89
2022/01/11 08:07:02;;;;;;;36.33;18.37;;;;;;;;;;4993401;28;20474;-89
2022/01/11 08:09:29;;;;;;;32.90;17.63;;;;;;;;;;4993622;28;20449;-89
2022/01/11 08:11:58;;;;;;;25.70;17.07;;;;;;;;;;4997982;28;20462;-88
2022/01/11 08:14:26;;;;;;;25.37;17.00;;;;;;;;;;4996474;28;20489;-89
2022/01/11 08:16:53;;;;;;;28.27;16.20;;;;;;;;;;4993932;28;20988;-91
2022/01/11 08:19:24;;;;;;;30.20;19.20;;;;;;;;;;4994992;28;20458;-91
2022/01/11 08:21:53;;;;;;;31.67;17.33;;;;;;;;;;4995182;28;20469;-91
2022/01/11 08:24:21;;;;;;;35.53;17.70;;;;;;;;;;4997761;28;20461;-90
2022/01/11 08:26:48;;;;;;;22.20;15.40;;;;;;;;;;4994359;28;20484;-92
2022/01/11 08:29:18;;;;;;;25.70;15.83;;;;;;;;;;4992467;28;20441;-91
2022/01/11 08:31:45;;;;;;;26.27;16.50;;;;;;;;;;4997620;28;20437;-93
2022/01/11 08:34:14;;;;;;;25.37;14.40;;;;;;;;;;4997240;28;20454;-92
2022/01/11 08:36:41;;;;;;;29.10;16.20;;;;;;;;;;4993920;28;20524;-92
2022/01/11 08:39:14;;;;;;;25.20;15.27;;;2.50;99.90;;;;;;5006658;23;20474;-90
2022/01/11 08:41:41;;;;;;;24.70;15.40;;;;;;;;;;4980801;28;20458;-91
2022/01/11 08:44:09;;;;;;;30.70;17.07;;;;;;;;;;4974986;28;20454;-93
2022/01/11 08:46:37;;;;;;;35.03;16.60;;;;;;;;;;4990641;28;20458;-92
2022/01/11 08:49:04;;;;;;;52.07;27.93;;;;;;;;;;4994719;28;20504;-90
2022/01/11 08:51:32;;;;;;;32.10;19.63;;;;;;;;;;4995619;28;20525;-91
2022/01/11 08:53:59;;;;;;;38.03;20.83;;;;;;;;;;4995049;28;20816;-89
2022/01/11 08:56:27;;;;;;;35.93;22.20;;;3.00;99.90;;;;;;4992523;28;20464;-89
2022/01/11 08:58:54;;;;;;;33.37;22.00;;;;;;;;;;4990445;28;20472;-91
2022/01/11 09:01:23;;;;;;;38.23;20.47;;;;;;;;;;4995335;28;20461;-90
2022/01/11 09:03:50;;;;;;;28.20;18.40;;;;;;;;;;5002452;28;20863;-88
2022/01/11 09:06:17;;;;;;;31.90;18.87;;;;;;;;;;5015926;28;20484;-89
2022/01/11 09:08:45;;;;;;;28.43;19.23;;;;;;;;;;5001766;28;20449;-89
2022/01/11 09:11:12;;;;;;;27.57;18.43;;;;;;;;;;4999253;28;20454;-89
2022/01/11 09:13:40;;;;;;;23.60;17.13;;;;;;;;;;4996661;28;20450;-91
2022/01/11 09:16:08;;;;;;;47.70;27.23;;;;;;;;;;5003510;28;20457;-87
2022/01/11 09:18:35;;;;;;;40.77;27.67;;;;;;;;;;5004105;28;20568;-86
2022/01/11 09:21:03;;;;;;;33.60;21.70;;;;;;;;;;4999982;28;20964;-86
2022/01/11 09:23:30;;;;;;;49.27;32.57;;;;;;;;;;4999389;28;21032;-87
2022/01/11 09:25:58;;;;;;;34.37;21.10;;;;;;;;;;5002661;28;20453;-86
2022/01/11 09:28:25;;;;;;;35.67;19.90;;;;;;;;;;5000794;28;20466;-87
2022/01/11 09:30:53;;;;;;;30.10;18.97;;;3.10;99.90;;;;;;4990888;28;20457;-89
2022/01/11 09:33:20;;;;;;;30.27;20.13;;;;;;;;;;4975010;28;20461;-87
2022/01/11 09:35:47;;;;;;;31.47;22.30;;;;;;;;;;4975181;28;20446;-88
2022/01/11 09:38:15;;;;;;;29.80;18.63;;;;;;;;;;4977349;28;20498;-85
2022/01/11 09:40:42;;;;;;;24.57;17.10;;;;;;;;;;4979438;28;20478;-87
2022/01/11 09:43:09;;;;;;;29.23;18.10;;;;;;;;;;4981076;28;20451;-87
2022/01/11 09:45:37;;;;;;;26.73;16.13;;;;;;;;;;4982915;28;20485;-88
2022/01/11 09:48:06;;;;;;;26.70;17.00;;;3.30;99.90;;;;;;4978151;28;20493;-87
2022/01/11 09:50:33;;;;;;;61.63;42.63;;;;;;;;;;4985848;28;20446;-87
2022/01/11 09:53:01;;;;;;;30.20;18.83;;;3.30;99.90;;;;;;4984021;28;20949;-89
2022/01/11 09:55:28;;;;;;;32.80;16.93;;;;;;;;;;4985968;28;20449;-87
2022/01/11 09:57:56;;;;;;;23.83;16.67;;;3.40;99.90;;;;;;4987812;28;20889;-90
2022/01/11 10:00:23;;;;;;;25.23;16.20;;;;;;;;;;4978781;28;20813;-89
2022/01/11 10:02:50;;;;;;;33.87;17.63;;;;;;;;;;4999324;28;20463;-90
2022/01/11 10:05:18;;;;;;;24.37;15.63;;;3.60;99.90;;;;;;5006883;28;20453;-88
2022/01/11 10:07:46;;;;;;;25.10;16.77;;;;;;;;;;5006139;28;20457;-89
2022/01/11 10:10:16;;;;;;;31.20;18.50;;;3.50;99.90;;;;;;5008594;28;20449;-88
2022/01/11 10:12:46;;;;;;;27.20;16.73;;;3.60;99.90;;;;;;5003771;28;21301;-91
2022/01/11 10:15:15;;;;;;;26.50;16.10;;;3.60;99.90;;;;;;5006600;28;20452;-90
2022/01/11 10:17:44;;;;;;;24.60;15.83;;;3.70;99.90;;;;;;5009661;28;20509;-88
2022/01/11 10:20:13;;;;;;;28.73;16.90;;;3.80;99.90;;;;;;5010672;28;20522;-89
2022/01/11 10:22:50;;;;;;;28.93;19.93;;;3.90;99.90;;;;;;5005037;28;20987;-91
2022/01/11 10:25:17;;;;;;;38.77;26.77;;;;;;;;;;5007827;28;20437;-90
2022/01/11 10:27:46;;;;;;;31.70;21.53;;;;;;;;;;5009662;28;20433;-87
2022/01/11 10:30:15;;;;;;;25.67;16.87;;;4.00;99.90;;;;;;5011566;28;20434;-89
2022/01/11 10:32:45;;;;;;;29.50;20.97;;;4.00;99.90;;;;;;5011681;28;20465;-87
2022/01/11 10:35:15;;;;;;;19.50;15.13;;;4.00;99.90;;;;;;5008963;28;20492;-91
2022/01/11 10:37:44;;;;;;;29.37;19.87;;;4.10;99.90;;;;;;5001500;28;20489;-89
2022/01/11 10:40:30;;;;;;;28.90;17.10;;;4.10;99.90;;;;;;5006835;28;20488;-92
2022/01/11 10:42:59;;;;;;;25.60;16.90;;;4.10;99.90;;;;;;5005107;28;20496;-89
2022/01/11 10:45:27;;;;;;;22.97;14.50;;;4.10;99.90;;;;;;5012309;23;20504;-88
2022/01/11 10:47:56;;;;;;;37.23;18.27;;;4.30;99.90;;;;;;5000335;28;20472;-90
2022/01/11 10:50:28;;;;;;;22.30;14.50;;;4.40;99.90;;;;;;5009700;28;20457;-90
2022/01/11 10:52:56;;;;;;;21.70;14.90;;;4.40;99.90;;;;;;5006218;28;20464;-92
2022/01/11 10:55:26;;;;;;;23.27;14.57;;;4.60;99.90;;;;;;5006287;28;20454;-91
2022/01/11 10:57:55;;;;;;;24.73;16.50;;;4.60;99.90;;;;;;5002035;28;20481;-89
2022/01/11 11:00:28;;;;;;;23.00;14.23;;;4.70;99.90;;;;;;5002898;28;20454;-91
2022/01/11 11:02:58;;;;;;;22.53;15.03;;;4.80;99.90;;;;;;4992445;28;20452;-90
2022/01/11 11:05:30;;;;;;;18.00;14.07;;;4.90;99.90;;;;;;5000467;28;20450;-90
2022/01/11 11:08:01;;;;;;;18.87;13.13;;;4.70;99.90;;;;;;4993556;28;20462;-91
2022/01/11 11:10:33;;;;;;;19.83;13.40;;;4.50;99.90;;;;;;4990774;28;20804;-90
2022/01/11 11:13:01;;;;;;;22.53;12.77;;;;;;;;;;4994116;28;20490;-89
2022/01/11 11:15:33;;;;;;;35.77;26.07;;;4.80;99.90;;;;;;4995986;28;20541;-88
2022/01/11 11:18:03;;;;;;;16.30;11.30;;;;;;;;;;4996625;28;20484;-90
2022/01/11 11:20:30;;;;;;;15.40;9.90;;;;;;;;;;4979637;28;20453;-91
2022/01/11 11:22:57;;;;;;;13.50;9.60;;;;;;;;;;4985842;28;20449;-92
2022/01/11 11:25:24;;;;;;;16.50;9.57;;;;;;;;;;4997999;28;20477;-91
2022/01/11 11:27:53;;;;;;;14.13;10.77;;;;;;;;;;5003859;28;20456;-92
2022/01/11 11:30:21;;;;;;;17.83;13.43;;;;;;;;;;5004176;28;20937;-93
2022/01/11 11:32:52;;;;;;;15.23;9.27;;;5.30;99.90;;;;;;4999676;28;20458;-92
2022/01/11 11:35:23;;;;;;;12.37;8.67;;;;;;;;;;4995019;28;20948;-92
2022/01/11 11:37:54;;;;;;;12.80;7.87;;;;;;;;;;4999788;28;20498;-91
2022/01/11 11:40:24;;;;;;;16.73;11.90;;;5.40;99.90;;;;;;4997004;28;20461;-92
2022/01/11 11:42:55;;;;;;;12.60;8.83;;;5.30;99.90;;;;;;4998293;28;20486;-91
2022/01/11 11:45:24;;;;;;;11.87;8.13;;;5.10;99.90;;;;;;4999884;28;20489;-93
2022/01/11 11:47:52;;;;;;;11.30;7.50;;;;;;;;;;4997644;28;20423;-91
2022/01/11 11:50:22;;;;;;;13.37;9.80;;;4.90;99.90;;;;;;4996047;28;20462;-91
2022/01/11 11:52:51;;;;;;;14.60;10.07;;;5.30;99.90;;;;;;4998253;28;20450;-92
2022/01/11 11:55:23;;;;;;;11.07;7.00;;;6.20;99.90;;;;;;4993730;28;20505;-93
2022/01/11 11:57:53;;;;;;;11.63;7.27;;;5.80;99.90;;;;;;4997260;28;20481;-94
2022/01/11 12:00:23;;;;;;;13.20;9.00;;;5.60;99.90;;;;;;5000807;28;20526;-91
2022/01/11 12:02:52;;;;;;;9.13;7.40;;;5.50;99.90;;;;;;4998564;28;20457;-92
2022/01/11 12:05:36;;;;;;;9.60;6.40;;;4.90;99.90;;;;;;4994926;28;20445;-94
2022/01/11 12:08:31;;;;;;;8.77;5.70;;;4.40;99.90;;;;;;4996813;28;20461;-95
2022/01/11 12:11:36;;;;;;;12.07;8.00;;;4.60;99.90;;;;;;5000481;28;20982;-94
2022/01/11 12:14:05;;;;;;;12.00;8.60;;;;;;;;;;4999329;28;20450;-93
2022/01/11 12:16:50;;;;;;;11.00;8.30;;;4.60;99.90;;;;;;4984742;28;20450;-94
2022/01/11 12:19:41;;;;;;;11.93;7.20;;;4.70;99.90;;;;;;4980098;28;20482;-94
2022/01/11 12:22:23;;;;;;;11.93;8.07;;;4.70;99.90;;;;;;4978482;28;20486;-94
2022/01/11 12:24:52;;;;;;;10.37;7.57;;;4.70;99.90;;;;;;4978160;28;20450;-95
2022/01/11 12:27:22;;;;;;;10.03;6.70;;;4.70;99.90;;;;;;4981479;28;20458;-92
2022/01/11 12:29:57;;;;;;;10.20;7.23;;;4.90;99.90;;;;;;4979292;28;20442;-95
2022/01/11 12:32:26;;;;;;;10.50;6.80;;;;;;;;;;4984763;28;20465;-94
2022/01/11 12:35:09;;;;;;;8.53;6.77;;;4.80;99.90;;;;;;4981357;28;20466;-94
2022/01/11 12:37:40;;;;;;;5.20;3.93;;;5.20;99.90;;;;;;4983725;28;20445;-92
2022/01/11 12:40:25;;;;;;;3.10;2.80;;;5.20;99.90;;;;;;4976576;28;20462;-90
2022/01/11 12:43:04;;;;;;;4.10;2.80;;;5.10;99.90;;;;;;4974962;28;20450;-94
2022/01/11 12:46:03;;;;;;;3.43;2.90;;;5.10;99.90;;;;;;4971396;28;20482;-93
2022/01/11 12:49:02;;;;;;;5.27;3.67;;;4.90;99.90;;;;;;4975405;28;20455;-94
2022/01/11 12:51:34;;;;;;;6.80;4.40;;;4.90;99.90;;;;;;4979399;28;20450;-90
2022/01/11 12:54:24;;;;;;;5.83;3.87;;;5.00;99.90;;;;;;4978465;28;20462;-88
2022/01/11 12:56:54;;;;;;;5.50;3.63;;;5.00;99.90;;;;;;4981003;28;20451;-89
2022/01/11 12:59:23;;;;;;;6.30;3.67;;;4.90;99.90;;;;;;4984643;28;20480;-93
2022/01/11 13:02:01;;;;;;;4.27;3.50;;;4.70;99.90;;;;;;4978949;28;20863;-94
2022/01/11 13:04:39;;;;;;;4.33;3.67;;;;;;;;;;4981932;28;20484;-90
2022/01/11 13:07:18;;;;;;;4.47;3.60;;;4.60;99.90;;;;;;4982518;28;20450;-93
2022/01/11 13:09:46;;;;;;;4.10;3.27;;;4.70;99.90;;;;;;4982839;28;20475;-93
2022/01/11 13:12:26;;;;;;;4.90;3.90;;;4.70;99.90;;;;;;4982161;28;20467;-92
2022/01/11 13:15:10;;;;;;;11.20;7.53;;;4.70;99.90;;;;;;4983939;28;20466;-91
2022/01/11 13:18:09;;;;;;;7.00;6.23;;;4.60;99.90;;;;;;4989595;28;20946;-91
2022/01/11 13:20:38;;;;;;;5.47;4.60;;;4.30;99.90;;;;;;4985241;28;20556;-92
2022/01/11 13:23:12;;;;;;;8.80;5.30;;;4.40;99.90;;;;;;4998313;28;20454;-92
2022/01/11 13:25:40;;;;;;;6.40;3.73;;;;;;;;;;4999677;28;20457;-94
2022/01/11 13:28:14;;;;;;;8.33;7.30;;;;;;;;;;4998593;28;20454;-93
2022/01/11 13:30:43;;;;;;;10.20;6.43;;;;;;;;;;4997551;28;20965;-94
2022/01/11 13:33:24;;;;;;;14.63;9.67;;;4.40;99.90;;;;;;4999457;28;20515;-92
2022/01/11 13:35:55;;;;;;;5.83;5.13;;;;;;;;;;5000673;28;20944;-92
2022/01/11 13:38:44;;;;;;;5.83;4.10;;;4.40;99.90;;;;;;5000593;28;20485;-95
2022/01/11 13:41:12;;;;;;;6.33;4.17;;;;;;;;;;5003009;28;20444;-94
2022/01/11 13:43:45;;;;;;;4.47;3.73;;;4.40;99.90;;;;;;4999379;28;20461;-93
2022/01/11 13:46:16;;;;;;;5.33;3.87;;;;;;;;;;5000895;28;20477;-92
2022/01/11 13:48:50;;;;;;;5.43;4.13;;;4.30;99.90;;;;;;5000841;28;20462;-93
2022/01/11 13:51:17;;;;;;;4.13;3.27;;;;;;;;;;5002685;28;20971;-92
2022/01/11 13:53:47;;;;;;;9.27;8.30;;;;;;;;;;4997194;28;20458;-93
2022/01/11 13:56:16;;;;;;;6.60;4.33;;;4.20;99.90;;;;;;4993697;28;20495;-93
2022/01/11 13:58:49;;;;;;;14.00;4.50;;;4.10;99.90;;;;;;4996098;28;21019;-93
2022/01/11 14:01:21;;;;;;;6.37;4.60;;;4.10;99.90;;;;;;4997402;28;20462;-95